Terminal Aerodrome Forecast
Issued by NWS

Home | Current Version | Previous Version | Text Only | Print | Product List | Glossary On
Versions: 1 2 3 4 5 6 7 8 9 10 11 12 13 14 15
000
FTUS45 KRIW 241129
TAFCPR
TAF
KCPR 241129Z 2412/2512 02010KT P6SM -SN OVC013
     FM241500 02011KT P6SM BKN022
     FM241800 02008KT P6SM BKN040
     FM250200 VRB05KT P6SM BKN050
     FM250500 21006KT P6SM SKC=

USA.gov is the U.S. government's official web portal to all federal, state and local government web resources and services.